Time;durP1;ratioP1;P1;durP2;ratioP2;P2;SDS_P1;SDS_P2;PMS_P1;PMS_P2;Temp;Humidity;BMP_temperature;BMP_pressure;BME280_temperature;BME280_humidity;BME280_pressure;Samples;Min_cycle;Max_cycle;Signal;HPM_P1;HPM_P2
2022/03/27 00:02:05;;;;;;;4.03;1.35;;;20.50;99.90;;;;;;5029783;28;20386;-84
2022/03/27 00:04:32;;;;;;;4.78;1.08;;;20.20;99.90;;;;;;5029417;28;20715;-91
2022/03/27 00:06:59;;;;;;;3.63;1.10;;;20.00;99.90;;;;;;5029776;28;20377;-90
2022/03/27 00:09:26;;;;;;;2.92;1.13;;;19.80;99.90;;;;;;5029917;28;20738;-91
2022/03/27 00:11:55;;;;;;;3.03;1.00;;;19.70;99.90;;;;;;5030034;28;20385;-84
2022/03/27 00:14:23;;;;;;;2.65;1.20;;;19.70;99.90;;;;;;5030157;28;20495;-84
2022/03/27 00:16:51;;;;;;;3.60;1.10;;;19.60;99.90;;;;;;5044766;28;20883;-90
2022/03/27 00:19:18;;;;;;;5.35;1.23;;;19.70;99.90;;;;;;5029185;28;20385;-88
2022/03/27 00:21:45;;;;;;;2.97;1.05;;;19.80;99.90;;;;;;5029460;28;20370;-85
2022/03/27 00:24:12;;;;;;;3.42;1.10;;;19.90;99.90;;;;;;5029887;28;20388;-83
2022/03/27 00:26:40;;;;;;;3.63;1.00;;;20.00;99.90;;;;;;5030674;28;20438;-85
2022/03/27 00:29:08;;;;;;;5.47;1.27;;;20.00;99.90;;;;;;5029279;28;20381;-87
2022/03/27 00:31:38;;;;;;;3.05;1.02;;;20.10;99.90;;;;;;5029122;28;20382;-90
2022/03/27 00:34:07;;;;;;;4.50;1.20;;;20.30;99.90;;;;;;5029285;28;20865;-85
2022/03/27 00:36:35;;;;;;;3.60;1.17;;;20.40;99.90;;;;;;5029764;28;20427;-91
2022/03/27 00:39:02;;;;;;;3.42;1.40;;;20.30;99.90;;;;;;5029411;28;20431;-86
2022/03/27 00:41:30;;;;;;;4.70;1.92;;;20.30;99.90;;;;;;5028958;28;20468;-94
2022/03/27 00:43:57;;;;;;;3.13;1.63;;;20.40;99.90;;;;;;5029368;28;20907;-92
2022/03/27 00:46:24;;;;;;;3.08;1.20;;;20.40;99.90;;;;;;5029748;28;20385;-93
2022/03/27 00:48:51;;;;;;;2.28;1.10;;;20.40;99.90;;;;;;5029832;28;20382;-89
2022/03/27 00:51:19;;;;;;;3.70;1.30;;;20.40;99.90;;;;;;5012148;28;20425;-85
2022/03/27 00:53:46;;;;;;;4.23;1.27;;;20.60;99.90;;;;;;5036055;28;20412;-85
2022/03/27 00:56:13;;;;;;;4.40;1.30;;;20.70;99.90;;;;;;5039753;28;20424;-82
2022/03/27 00:58:40;;;;;;;4.68;1.20;;;20.80;99.90;;;;;;5030403;28;20461;-84
2022/03/27 01:01:25;;;;;;;3.25;1.45;;;21.30;99.90;;;;;;5033011;28;20427;-89
2022/03/27 01:03:57;;;;;;;4.65;1.50;;;21.30;99.90;;;;;;5037971;28;20712;-91
2022/03/27 01:06:32;;;;;;;4.40;1.52;;;21.50;99.90;;;;;;5038501;28;20401;-83
2022/03/27 01:11:47;;;;;;;4.38;1.52;;;21.80;99.90;;;;;;5033637;28;20452;-88
2022/03/27 01:14:17;;;;;;;2.95;1.52;;;21.80;99.90;;;;;;5034610;28;20412;-88
2022/03/27 01:16:47;;;;;;;3.78;1.70;;;22.10;99.90;;;;;;5035946;28;20376;-83
2022/03/27 01:19:16;;;;;;;3.53;1.98;;;22.70;99.90;;;;;;5036362;28;20412;-82
2022/03/27 01:21:45;;;;;;;3.92;2.00;;;22.70;99.90;;;;;;5019820;28;20788;-88
2022/03/27 01:24:15;;;;;;;3.33;1.50;;;22.90;99.90;;;;;;5033776;28;20369;-84
2022/03/27 01:26:43;;;;;;;2.67;1.33;;;23.20;99.90;;;;;;5032025;28;20384;-87
2022/03/27 01:29:10;;;;;;;3.88;1.50;;;23.80;99.90;;;;;;5033363;28;20445;-88
2022/03/27 01:31:37;;;;;;;3.57;1.40;;;23.70;99.90;;;;;;5033278;28;20381;-86
2022/03/27 01:34:05;;;;;;;4.10;1.52;;;23.90;99.90;;;;;;5032952;28;20526;-89
2022/03/27 01:36:35;;;;;;;5.03;1.40;;;24.00;99.90;;;;;;5032564;28;20457;-88
2022/03/27 01:39:07;;;;;;;5.90;1.58;;;23.70;99.90;;;;;;5031913;28;20435;-86
2022/03/27 01:41:35;;;;;;;6.43;1.45;;;23.30;99.90;;;;;;5032202;28;20449;-89
2022/03/27 01:44:03;;;;;;;3.83;1.60;;;23.30;99.90;;;;;;5031569;28;20905;-87
2022/03/27 01:46:35;;;;;;;5.95;1.73;;;23.40;99.90;;;;;;5032323;28;20468;-89
2022/03/27 01:49:07;;;;;;;5.82;1.70;;;23.30;99.90;;;;;;5034292;28;20369;-85
2022/03/27 01:51:39;;;;;;;5.83;1.50;;;23.30;99.90;;;;;;5003629;28;20399;-86
2022/03/27 01:54:19;;;;;;;4.15;1.50;;;23.40;99.90;;;;;;5009755;28;20960;-86
2022/03/27 01:59:58;;;;;;;3.37;1.40;;;23.70;99.90;;;;;;4950117;29;20382;-92
2022/03/27 02:02:25;;;;;;;5.47;1.58;;;23.80;99.90;;;;;;4951236;29;20465;-86
2022/03/27 02:04:53;;;;;;;4.72;1.50;;;23.70;99.90;;;;;;4942665;29;20787;-94
2022/03/27 02:07:22;;;;;;;6.77;1.60;;;23.70;99.90;;;;;;4933295;29;20489;-85
2022/03/27 02:09:49;;;;;;;4.45;1.60;;;23.30;99.90;;;;;;4932333;29;20842;-84
2022/03/27 02:12:19;;;;;;;5.20;1.43;;;23.00;99.90;;;;;;4932314;29;20398;-83
2022/03/27 02:14:46;;;;;;;7.03;1.67;;;23.10;99.90;;;;;;4932407;29;20398;-87
2022/03/27 02:17:13;;;;;;;7.07;1.80;;;23.00;99.90;;;;;;4932669;29;20382;-86
2022/03/27 02:19:40;;;;;;;5.75;1.48;;;22.70;99.90;;;;;;4932208;29;20398;-89
2022/03/27 02:22:07;;;;;;;6.28;1.60;;;22.50;99.90;;;;;;4932998;29;20386;-91
2022/03/27 02:24:38;;;;;;;4.45;1.23;;;22.10;99.90;;;;;;4941885;29;20421;-94
2022/03/27 02:27:05;;;;;;;4.85;1.42;;;22.00;99.90;;;;;;4938562;29;20390;-96
2022/03/27 02:29:32;;;;;;;5.82;1.40;;;21.90;99.90;;;;;;4963700;28;20424;-84
2022/03/27 02:31:59;;;;;;;4.32;1.40;;;21.90;99.90;;;;;;4969732;28;20404;-84
2022/03/27 02:34:26;;;;;;;2.88;1.08;;;21.70;99.90;;;;;;4969952;28;20834;-83
2022/03/27 02:36:53;;;;;;;4.07;1.03;;;21.50;99.90;;;;;;5004876;28;20369;-82
2022/03/27 02:39:21;;;;;;;7.43;2.08;;;21.20;99.90;;;;;;5031048;28;20381;-85
2022/03/27 02:41:47;;;;;;;10.27;2.65;;;21.00;99.90;;;;;;5033012;28;20408;-85
2022/03/27 02:44:15;;;;;;;11.00;3.10;;;20.80;99.90;;;;;;5030846;28;20535;-82
2022/03/27 02:46:43;;;;;;;13.75;3.05;;;20.60;99.90;;;;;;5031258;28;20888;-85
2022/03/27 02:49:09;;;;;;;11.45;2.92;;;20.50;99.90;;;;;;5030755;28;20381;-81
2022/03/27 02:51:39;;;;;;;8.93;2.40;;;20.50;99.90;;;;;;5030554;28;20377;-83
2022/03/27 02:54:07;;;;;;;7.38;2.70;;;20.30;99.90;;;;;;5030335;28;20413;-82
2022/03/27 02:56:34;;;;;;;6.53;1.90;;;20.30;99.90;;;;;;5030343;28;20769;-83
2022/03/27 02:59:01;;;;;;;7.05;2.45;;;20.30;99.90;;;;;;5030295;28;20388;-82
2022/03/27 03:01:28;;;;;;;6.75;2.47;;;20.20;99.90;;;;;;5030715;28;20707;-83
2022/03/27 03:03:56;;;;;;;6.90;2.75;;;20.20;99.90;;;;;;5030371;28;20382;-81
2022/03/27 03:06:24;;;;;;;8.50;2.30;;;20.20;99.90;;;;;;5030347;28;20724;-80
2022/03/27 03:08:51;;;;;;;6.07;2.30;;;20.20;99.90;;;;;;5030444;28;20389;-83
2022/03/27 03:11:20;;;;;;;6.22;1.83;;;20.20;99.90;;;;;;5030392;28;20722;-81
2022/03/27 03:13:52;;;;;;;5.90;2.00;;;20.20;99.90;;;;;;5030271;28;20405;-82
2022/03/27 03:16:21;;;;;;;4.47;1.90;;;20.30;99.90;;;;;;5030363;28;20368;-80
2022/03/27 03:18:48;;;;;;;3.17;1.50;;;20.30;99.90;;;;;;5029902;28;20386;-78
2022/03/27 03:21:16;;;;;;;5.25;1.92;;;20.50;99.90;;;;;;5030209;28;20393;-83
2022/03/27 03:23:44;;;;;;;5.15;1.70;;;20.70;99.90;;;;;;5011725;28;20398;-87
2022/03/27 03:26:11;;;;;;;5.00;1.58;;;20.70;99.90;;;;;;5012723;28;20389;-89
2022/03/27 03:28:38;;;;;;;4.97;1.50;;;20.80;99.90;;;;;;5032161;28;20781;-91
2022/03/27 03:31:05;;;;;;;4.85;1.60;;;20.70;99.90;;;;;;5031225;28;20377;-85
2022/03/27 03:33:32;;;;;;;5.60;1.60;;;20.70;99.90;;;;;;5031133;28;20885;-89
2022/03/27 03:35:59;;;;;;;4.70;1.60;;;20.70;99.90;;;;;;5030777;28;20378;-88
2022/03/27 03:38:26;;;;;;;4.95;1.73;;;20.50;99.90;;;;;;5029465;28;20378;-84
2022/03/27 03:40:53;;;;;;;4.03;1.42;;;20.50;99.90;;;;;;5029432;28;20381;-89
2022/03/27 03:43:20;;;;;;;4.43;2.00;;;20.30;99.90;;;;;;5029789;28;20870;-86
2022/03/27 03:45:48;;;;;;;5.13;2.20;;;20.20;99.90;;;;;;5030735;28;20378;-88
2022/03/27 03:48:15;;;;;;;4.95;2.08;;;20.20;99.90;;;;;;5029718;28;20865;-92
2022/03/27 03:50:42;;;;;;;3.65;1.40;;;20.60;99.90;;;;;;5030917;28;20381;-88
2022/03/27 03:53:09;;;;;;;5.65;2.75;;;20.70;99.90;;;;;;5029080;28;20425;-87
2022/03/27 03:55:36;;;;;;;5.97;1.90;;;20.70;99.90;;;;;;5028996;28;20444;-83
2022/03/27 03:58:03;;;;;;;3.85;1.50;;;20.90;99.90;;;;;;5029415;28;20419;-82
2022/03/27 04:00:31;;;;;;;5.72;1.50;;;20.90;99.90;;;;;;5028919;28;20405;-81
2022/03/27 04:03:00;;;;;;;6.05;1.77;;;20.70;99.90;;;;;;5028750;28;20380;-82
2022/03/27 04:05:27;;;;;;;3.70;1.70;;;20.40;99.90;;;;;;5011159;28;20476;-80
2022/03/27 04:07:55;;;;;;;5.28;1.52;;;20.40;99.90;;;;;;5028837;28;20377;-85
2022/03/27 04:10:22;;;;;;;4.65;1.98;;;20.40;99.90;;;;;;5028785;28;20394;-88
2022/03/27 04:12:49;;;;;;;5.57;2.50;;;20.50;99.90;;;;;;5028587;28;20423;-82
2022/03/27 04:15:16;;;;;;;4.72;1.95;;;20.30;99.90;;;;;;5028698;28;20385;-81
2022/03/27 04:17:50;;;;;;;4.10;1.70;;;20.50;99.90;;;;;;5028957;28;20730;-89
2022/03/27 04:20:18;;;;;;;5.18;2.00;;;20.40;99.90;;;;;;5028983;28;20361;-82
2022/03/27 04:22:46;;;;;;;5.22;2.10;;;20.60;99.90;;;;;;5028779;28;20373;-81
2022/03/27 04:25:15;;;;;;;6.00;1.70;;;20.50;99.90;;;;;;5011023;28;20848;-81
2022/03/27 04:27:42;;;;;;;4.80;1.70;;;20.40;99.90;;;;;;5028881;28;20374;-87
2022/03/27 04:30:10;;;;;;;6.75;2.50;;;20.40;99.90;;;;;;5029712;28;20747;-81
2022/03/27 04:32:39;;;;;;;6.53;2.45;;;20.50;99.90;;;;;;5029142;28;20382;-81
2022/03/27 04:35:09;;;;;;;5.43;1.50;;;20.60;99.90;;;;;;5028822;28;20730;-81
2022/03/27 04:37:44;;;;;;;5.53;1.63;;;20.50;99.90;;;;;;5028607;28;20374;-79
2022/03/27 04:40:13;;;;;;;5.70;1.87;;;20.30;99.90;;;;;;5029023;28;20381;-79
2022/03/27 04:42:41;;;;;;;5.68;1.40;;;20.30;99.90;;;;;;5028861;28;20717;-79
2022/03/27 04:45:09;;;;;;;6.72;1.92;;;20.10;99.90;;;;;;5028848;28;20971;-80
2022/03/27 04:47:36;;;;;;;7.50;1.70;;;20.10;99.90;;;;;;5030518;28;20456;-81
2022/03/27 04:50:04;;;;;;;6.60;2.40;;;20.00;99.90;;;;;;5029082;28;20386;-85
2022/03/27 04:52:32;;;;;;;7.43;1.77;;;20.00;99.90;;;;;;5028668;28;20409;-85
2022/03/27 04:54:59;;;;;;;5.80;2.25;;;20.00;99.90;;;;;;5028915;28;20896;-87
2022/03/27 04:57:32;;;;;;;8.07;1.70;;;20.10;99.90;;;;;;5033705;28;20446;-88
2022/03/27 04:59:59;;;;;;;7.18;1.98;;;20.10;99.90;;;;;;5030913;28;20378;-86
2022/03/27 05:02:26;;;;;;;9.13;1.80;;;20.10;99.90;;;;;;5028818;28;20730;-82
2022/03/27 05:04:53;;;;;;;6.33;1.70;;;20.20;99.90;;;;;;5028483;28;20377;-89
2022/03/27 05:07:20;;;;;;;7.63;1.75;;;20.20;99.90;;;;;;5028371;28;20459;-81
2022/03/27 05:09:47;;;;;;;7.15;1.77;;;20.30;99.90;;;;;;5011288;28;20729;-86
2022/03/27 05:12:14;;;;;;;8.80;3.58;;;20.30;99.90;;;;;;5029712;28;20382;-84
2022/03/27 05:14:41;;;;;;;7.03;1.42;;;20.30;99.90;;;;;;5029055;28;20401;-87
2022/03/27 05:17:08;;;;;;;8.10;1.50;;;20.40;99.90;;;;;;5029392;28;20853;-84
2022/03/27 05:19:35;;;;;;;4.95;1.30;;;20.30;99.90;;;;;;5030878;28;20440;-89
2022/03/27 05:22:02;;;;;;;8.25;1.33;;;20.30;99.90;;;;;;5014548;28;20413;-84
2022/03/27 05:24:29;;;;;;;5.27;1.30;;;20.30;99.90;;;;;;5032512;28;20404;-83
2022/03/27 05:26:56;;;;;;;4.70;1.40;;;20.40;99.90;;;;;;5012751;28;20410;-82
2022/03/27 05:29:24;;;;;;;5.22;1.45;;;20.50;99.90;;;;;;5031949;28;20515;-85
2022/03/27 05:31:54;;;;;;;5.65;1.35;;;20.50;99.90;;;;;;5029291;28;20392;-86
2022/03/27 05:34:22;;;;;;;7.80;2.60;;;20.50;99.90;;;;;;5030525;28;20435;-88
2022/03/27 05:36:49;;;;;;;7.18;1.90;;;20.40;99.90;;;;;;5030639;28;20397;-87
2022/03/27 05:39:16;;;;;;;7.00;1.80;;;20.40;99.90;;;;;;5029599;28;20920;-91
2022/03/27 05:41:44;;;;;;;6.03;1.80;;;20.40;99.90;;;;;;5030484;28;20933;-91
2022/03/27 05:44:11;;;;;;;9.02;2.10;;;20.40;99.90;;;;;;5028297;28;20441;-88
2022/03/27 05:46:37;;;;;;;12.63;2.60;;;20.20;99.90;;;;;;5029097;28;20745;-89
2022/03/27 05:49:05;;;;;;;12.30;2.28;;;20.20;99.90;;;;;;5032380;28;20384;-82
2022/03/27 05:51:32;;;;;;;7.38;1.45;;;20.10;99.90;;;;;;5047402;28;20409;-80
2022/03/27 05:53:58;;;;;;;5.30;1.40;;;19.80;99.90;;;;;;5031641;28;20405;-81
2022/03/27 05:56:26;;;;;;;5.82;1.40;;;19.60;99.90;;;;;;5031697;28;20412;-87
2022/03/27 05:58:52;;;;;;;6.82;1.40;;;19.40;99.90;;;;;;5031451;28;20838;-82
2022/03/27 06:01:19;;;;;;;5.43;1.33;;;19.20;99.90;;;;;;5013737;28;20476;-82
2022/03/27 06:03:47;;;;;;;7.65;1.60;;;19.20;99.90;;;;;;5031928;28;20373;-87
2022/03/27 06:06:14;;;;;;;18.25;10.80;;;19.20;99.90;;;;;;5014044;28;20429;-82
2022/03/27 06:08:41;;;;;;;16.48;9.45;;;19.20;99.90;;;;;;5032695;28;20823;-88
2022/03/27 06:11:08;;;;;;;11.60;3.92;;;19.20;99.90;;;;;;5031556;28;20366;-83
2022/03/27 06:13:35;;;;;;;13.30;5.13;;;19.20;99.90;;;;;;5031809;28;20415;-81
2022/03/27 06:16:02;;;;;;;15.05;7.20;;;19.90;99.90;;;;;;5031764;28;20366;-84
2022/03/27 06:18:29;;;;;;;15.45;7.97;;;19.40;99.90;;;;;;5031135;28;20880;-82
2022/03/27 06:20:56;;;;;;;13.73;5.95;;;19.40;99.90;;;;;;5031553;28;20388;-83
2022/03/27 06:23:23;;;;;;;13.63;3.85;;;19.40;99.90;;;;;;5031774;28;20904;-82
2022/03/27 06:25:50;;;;;;;11.05;2.70;;;19.40;99.90;;;;;;5031472;28;20405;-81
2022/03/27 06:28:17;;;;;;;14.02;2.70;;;19.40;99.90;;;;;;5031643;28;20378;-85
2022/03/27 06:30:44;;;;;;;12.77;3.20;;;19.40;99.90;;;;;;5031246;28;20401;-81
2022/03/27 06:33:11;;;;;;;10.38;2.65;;;19.40;99.90;;;;;;5031471;28;20408;-89
2022/03/27 06:35:38;;;;;;;12.63;2.90;;;19.40;99.90;;;;;;5031198;28;20457;-84
2022/03/27 06:38:05;;;;;;;11.75;3.00;;;19.40;99.90;;;;;;5031474;28;20365;-91
2022/03/27 06:40:32;;;;;;;12.07;2.90;;;19.50;99.90;;;;;;5032012;28;20381;-88
2022/03/27 06:42:59;;;;;;;11.32;2.72;;;19.50;99.90;;;;;;5030552;28;20390;-84
2022/03/27 06:45:28;;;;;;;9.63;2.50;;;19.50;99.90;;;;;;5031542;28;20395;-83
2022/03/27 06:47:55;;;;;;;12.55;3.33;;;19.50;99.90;;;;;;5033547;28;20417;-82
2022/03/27 06:50:23;;;;;;;13.52;3.47;;;19.50;99.90;;;;;;5015075;28;20393;-82
2022/03/27 06:52:52;;;;;;;14.60;4.20;;;19.40;99.90;;;;;;5031779;28;20481;-82
2022/03/27 06:55:20;;;;;;;13.67;4.20;;;19.40;99.90;;;;;;5034676;28;20393;-79
2022/03/27 06:57:47;;;;;;;14.30;4.50;;;19.40;99.90;;;;;;5034279;28;20386;-82
2022/03/27 07:03:04;;;;;;;65.20;37.15;;;19.40;99.90;;;;;;5031237;28;20411;-80
2022/03/27 07:05:44;;;;;;;43.55;25.63;;;19.40;99.90;;;;;;5031005;28;20404;-81
2022/03/27 07:08:16;;;;;;;30.30;13.95;;;19.30;99.90;;;;;;5013195;28;20413;-82
2022/03/27 07:10:45;;;;;;;17.90;6.97;;;19.30;99.90;;;;;;5030936;28;20365;-88
2022/03/27 07:13:14;;;;;;;16.58;4.97;;;19.30;99.90;;;;;;5012623;28;20750;-81
2022/03/27 07:15:42;;;;;;;14.83;4.30;;;19.30;99.90;;;;;;5030442;28;20432;-81
2022/03/27 07:18:10;;;;;;;15.45;4.10;;;19.30;99.90;;;;;;5030280;28;20794;-83
2022/03/27 07:20:41;;;;;;;14.55;3.80;;;19.30;99.90;;;;;;5030139;28;20397;-82
2022/03/27 07:23:09;;;;;;;15.98;4.10;;;19.20;99.90;;;;;;5030289;28;20366;-81
2022/03/27 07:25:40;;;;;;;17.50;6.38;;;19.30;99.90;;;;;;5030395;28;20374;-87
2022/03/27 07:28:09;;;;;;;20.50;6.90;;;19.20;99.90;;;;;;5030236;28;20369;-84
2022/03/27 07:30:37;;;;;;;20.20;6.78;;;19.10;99.90;;;;;;5029781;28;20386;-81
2022/03/27 07:33:05;;;;;;;15.82;4.32;;;19.20;99.90;;;;;;5030550;28;20404;-81
2022/03/27 07:35:31;;;;;;;14.25;4.10;;;19.10;99.90;;;;;;5029886;28;20418;-80
2022/03/27 07:37:59;;;;;;;17.83;4.75;;;19.10;99.90;;;;;;5029583;28;20397;-83
2022/03/27 07:40:27;;;;;;;21.38;5.40;;;19.10;99.90;;;;;;5030312;28;20385;-84
2022/03/27 07:42:55;;;;;;;20.70;4.85;;;19.10;99.90;;;;;;5029239;28;20448;-91
2022/03/27 07:45:26;;;;;;;15.80;4.88;;;19.10;99.90;;;;;;5029295;28;20388;-81
2022/03/27 07:47:55;;;;;;;16.10;5.03;;;19.10;99.90;;;;;;5029450;28;20461;-77
2022/03/27 07:50:23;;;;;;;17.15;5.22;;;19.20;99.90;;;;;;5029171;28;20382;-80
2022/03/27 07:52:51;;;;;;;19.13;5.07;;;19.20;99.90;;;;;;5028843;28;20374;-81
2022/03/27 07:55:20;;;;;;;21.35;5.80;;;19.10;99.90;;;;;;5028938;28;20520;-82
2022/03/27 07:57:47;;;;;;;19.42;6.35;;;19.20;99.90;;;;;;5028968;28;20384;-87
2022/03/27 08:00:18;;;;;;;19.45;6.60;;;19.20;99.90;;;;;;5028129;28;20460;-81
2022/03/27 08:02:46;;;;;;;15.37;5.97;;;19.20;99.90;;;;;;5029407;28;20419;-90
2022/03/27 08:05:13;;;;;;;15.25;5.50;;;19.20;99.90;;;;;;5029231;28;20443;-88
2022/03/27 08:07:42;;;;;;;15.57;5.80;;;19.20;99.90;;;;;;5029145;28;20385;-88
2022/03/27 08:10:11;;;;;;;16.15;5.60;;;19.10;99.90;;;;;;5028877;28;20388;-87
2022/03/27 08:12:38;;;;;;;10.77;3.25;;;19.10;99.90;;;;;;5029187;28;20382;-83
2022/03/27 08:15:06;;;;;;;16.25;3.90;;;19.10;99.90;;;;;;5029459;28;20381;-83
2022/03/27 08:17:34;;;;;;;15.00;4.05;;;19.00;99.90;;;;;;5029037;28;20782;-83
2022/03/27 08:20:02;;;;;;;14.32;4.00;;;19.00;99.90;;;;;;5029392;28;20420;-86
2022/03/27 08:22:29;;;;;;;13.13;3.55;;;19.00;99.90;;;;;;5011543;28;20389;-83
2022/03/27 08:24:56;;;;;;;16.58;4.55;;;19.00;99.90;;;;;;5028852;28;20380;-89
2022/03/27 08:27:23;;;;;;;10.73;4.10;;;19.00;99.90;;;;;;5028776;28;20373;-82
2022/03/27 08:29:50;;;;;;;11.70;4.00;;;18.90;99.90;;;;;;5028936;28;20456;-83
2022/03/27 08:32:18;;;;;;;14.60;4.07;;;18.90;99.90;;;;;;5028899;28;20381;-83
2022/03/27 08:34:47;;;;;;;9.57;3.23;;;18.90;99.90;;;;;;5028833;28;20476;-90
2022/03/27 08:37:16;;;;;;;12.32;3.35;;;18.90;99.90;;;;;;5028620;28;20431;-90
2022/03/27 08:39:45;;;;;;;10.10;3.42;;;18.90;99.90;;;;;;5029012;28;20377;-83
2022/03/27 08:42:16;;;;;;;8.95;3.00;;;18.90;99.90;;;;;;5028360;28;20506;-84
2022/03/27 08:44:43;;;;;;;11.52;3.72;;;18.80;99.90;;;;;;5029246;28;20377;-87
2022/03/27 08:47:28;;;;;;;11.40;3.35;;;18.80;99.90;;;;;;5028850;28;20386;-82
2022/03/27 08:50:25;;;;;;;8.10;2.95;;;18.80;99.90;;;;;;5029121;28;20416;-89
2022/03/27 08:53:01;;;;;;;6.10;2.00;;;18.90;99.90;;;;;;5028906;28;20384;-81
2022/03/27 08:55:38;;;;;;;7.00;2.20;;;18.80;99.90;;;;;;5028615;28;20736;-90
2022/03/27 08:58:09;;;;;;;6.72;2.80;;;18.80;99.90;;;;;;5029054;28;20369;-82
2022/03/27 09:00:36;;;;;;;10.40;3.30;;;18.80;99.90;;;;;;5028533;28;20443;-83
2022/03/27 09:03:05;;;;;;;7.93;2.80;;;18.80;99.90;;;;;;5028574;28;20440;-90
2022/03/27 09:05:36;;;;;;;8.00;3.40;;;18.80;99.90;;;;;;5028758;28;20473;-89
2022/03/27 09:08:07;;;;;;;10.30;4.70;;;18.90;99.90;;;;;;5028819;28;20900;-87
2022/03/27 09:10:34;;;;;;;10.50;5.60;;;18.90;99.90;;;;;;5029063;28;20704;-92
2022/03/27 09:13:03;;;;;;;8.88;2.97;;;18.90;99.90;;;;;;5028526;28;20400;-84
2022/03/27 09:15:30;;;;;;;11.85;3.30;;;18.80;99.90;;;;;;5029318;28;20738;-81
2022/03/27 09:18:06;;;;;;;10.13;3.22;;;18.70;99.90;;;;;;5028436;28;20370;-85
2022/03/27 09:21:01;;;;;;;9.20;2.95;;;18.80;99.90;;;;;;5028760;28;20431;-86
2022/03/27 09:23:31;;;;;;;8.20;2.67;;;18.70;99.90;;;;;;5030819;28;20439;-84
2022/03/27 09:26:04;;;;;;;10.50;3.10;;;18.70;99.90;;;;;;5036026;28;20369;-85
2022/03/27 09:28:35;;;;;;;8.82;2.90;;;18.60;99.90;;;;;;5043444;28;20886;-80
2022/03/27 09:31:06;;;;;;;9.70;2.70;;;18.60;99.90;;;;;;5032708;28;20864;-81
2022/03/27 09:33:33;;;;;;;8.35;2.92;;;18.60;99.90;;;;;;5032397;28;20896;-86
2022/03/27 09:36:11;;;;;;;9.70;3.17;;;18.60;99.90;;;;;;5032425;28;20381;-84
2022/03/27 09:38:39;;;;;;;10.30;3.00;;;18.60;99.90;;;;;;5032195;28;20366;-86
2022/03/27 09:41:07;;;;;;;14.95;3.78;;;18.60;99.90;;;;;;5031987;28;20381;-81
2022/03/27 09:43:34;;;;;;;9.93;3.20;;;18.70;99.90;;;;;;5031622;28;20464;-86
2022/03/27 09:46:04;;;;;;;11.60;3.38;;;18.60;99.90;;;;;;5032387;28;20389;-83
2022/03/27 09:48:32;;;;;;;12.90;3.50;;;18.60;99.90;;;;;;5032512;28;20427;-83
2022/03/27 09:51:00;;;;;;;12.52;3.72;;;18.60;99.90;;;;;;5032203;28;20362;-83
2022/03/27 09:53:34;;;;;;;11.27;3.60;;;18.60;99.90;;;;;;5031538;28;20749;-84
2022/03/27 09:56:01;;;;;;;10.38;3.70;;;18.60;99.90;;;;;;5031852;28;20378;-89
2022/03/27 09:58:45;;;;;;;16.25;4.20;;;18.70;99.90;;;;;;5014768;28;20567;-88
2022/03/27 10:01:16;;;;;;;12.13;3.63;;;18.60;99.90;;;;;;5032516;28;20713;-83
2022/03/27 10:04:14;;;;;;;11.10;3.60;;;18.60;99.90;;;;;;5031601;28;20455;-85
2022/03/27 10:06:42;;;;;;;13.15;3.55;;;18.60;99.90;;;;;;5031154;28;20500;-84
2022/03/27 10:09:11;;;;;;;11.95;3.95;;;18.60;99.90;;;;;;5031999;28;20730;-83
2022/03/27 10:11:40;;;;;;;10.87;3.80;;;18.60;99.90;;;;;;5031297;28;20948;-83
2022/03/27 10:14:09;;;;;;;13.90;5.10;;;18.60;99.90;;;;;;5031424;28;20405;-85
2022/03/27 10:16:38;;;;;;;13.90;5.10;;;18.60;99.90;;;;;;5031258;28;20806;-87
2022/03/27 10:19:27;;;;;;;16.25;5.20;;;18.70;99.90;;;;;;5031744;28;20374;-86
2022/03/27 10:21:55;;;;;;;17.73;6.00;;;18.60;99.90;;;;;;5031387;28;20362;-86
2022/03/27 10:24:28;;;;;;;19.10;6.53;;;18.60;99.90;;;;;;5031117;28;20401;-89
2022/03/27 10:26:59;;;;;;;15.63;4.63;;;18.60;99.90;;;;;;5031025;28;20441;-84
2022/03/27 10:29:27;;;;;;;17.77;5.28;;;18.70;99.90;;;;;;5030866;28;20413;-83
2022/03/27 10:31:54;;;;;;;17.05;5.60;;;18.70;99.90;;;;;;5030447;28;20710;-83
2022/03/27 10:34:22;;;;;;;14.35;5.05;;;18.70;99.90;;;;;;5030948;28;20873;-84
2022/03/27 10:36:57;;;;;;;19.08;4.90;;;18.70;99.90;;;;;;5030854;28;20851;-81
2022/03/27 10:39:44;;;;;;;17.42;4.80;;;18.70;99.90;;;;;;5031431;28;20380;-85
2022/03/27 10:42:36;;;;;;;14.90;4.80;;;18.60;99.90;;;;;;5030990;28;20457;-83
2022/03/27 10:45:35;;;;;;;14.05;4.40;;;18.70;99.90;;;;;;5030615;28;20374;-83
2022/03/27 10:48:16;;;;;;;18.48;5.40;;;18.60;99.90;;;;;;5028524;28;20382;-88
2022/03/27 10:50:54;;;;;;;15.23;5.10;;;18.60;99.90;;;;;;5030599;28;20381;-84
2022/03/27 10:53:23;;;;;;;17.02;5.30;;;18.60;99.90;;;;;;5030256;28;20401;-86
2022/03/27 10:55:52;;;;;;;17.07;5.47;;;18.60;99.90;;;;;;5030539;28;20880;-83
2022/03/27 10:58:35;;;;;;;17.52;5.30;;;18.50;99.90;;;;;;5030473;28;20397;-84
2022/03/27 11:01:05;;;;;;;15.77;5.60;;;18.50;99.90;;;;;;5030711;28;20362;-84
2022/03/27 11:03:48;;;;;;;14.35;5.32;;;18.60;99.90;;;;;;5030341;28;20391;-85
2022/03/27 11:06:23;;;;;;;19.45;6.10;;;18.50;99.90;;;;;;5012366;28;20394;-85
2022/03/27 11:08:51;;;;;;;18.60;6.40;;;18.60;99.90;;;;;;5030211;28;20868;-82
2022/03/27 11:11:38;;;;;;;20.23;6.90;;;18.50;99.90;;;;;;5030369;28;20797;-84
2022/03/27 11:14:09;;;;;;;18.77;6.75;;;18.50;99.90;;;;;;4969720;28;20407;-86
2022/03/27 11:17:05;;;;;;;19.42;6.72;;;18.50;99.90;;;;;;4969501;28;20382;-85
2022/03/27 11:19:48;;;;;;;17.88;6.80;;;18.40;99.90;;;;;;4912468;29;20551;-81
2022/03/27 11:22:51;;;;;;;20.00;6.97;;;18.40;99.90;;;;;;4915658;29;20823;-81
2022/03/27 11:25:24;;;;;;;19.75;5.80;;;18.40;99.90;;;;;;4914018;29;20758;-87
2022/03/27 11:28:06;;;;;;;14.90;5.50;;;18.30;99.90;;;;;;4911962;29;20405;-83
2022/03/27 11:30:36;;;;;;;18.80;5.85;;;18.30;99.90;;;;;;4912304;29;20400;-83
2022/03/27 11:33:16;;;;;;;12.35;5.38;;;18.30;99.90;;;;;;4911736;29;20534;-81
2022/03/27 11:36:09;;;;;;;22.45;6.03;;;18.30;99.90;;;;;;4911483;29;20400;-87
2022/03/27 11:38:55;;;;;;;15.60;5.65;;;18.30;99.90;;;;;;4911339;29;20916;-85
2022/03/27 11:41:27;;;;;;;14.77;5.05;;;18.40;99.90;;;;;;4895532;29;20410;-85
2022/03/27 11:43:56;;;;;;;14.23;5.10;;;18.40;99.90;;;;;;4910507;29;20404;-81
2022/03/27 11:46:26;;;;;;;14.25;5.03;;;18.40;99.90;;;;;;4911253;29;20394;-84
2022/03/27 11:48:58;;;;;;;14.38;5.35;;;18.40;99.90;;;;;;4911399;29;20392;-85
2022/03/27 11:51:26;;;;;;;15.50;4.97;;;18.40;99.90;;;;;;4923054;29;20408;-85
2022/03/27 11:53:55;;;;;;;13.95;5.03;;;18.40;99.90;;;;;;4930213;29;20418;-82
2022/03/27 11:56:24;;;;;;;16.27;4.90;;;18.40;99.90;;;;;;4976244;28;20406;-82
2022/03/27 11:59:10;;;;;;;15.00;5.53;;;18.40;99.90;;;;;;5029037;28;20381;-87
2022/03/27 12:01:37;;;;;;;12.23;5.30;;;18.40;99.90;;;;;;5029147;28;20776;-86
2022/03/27 12:04:07;;;;;;;15.45;5.90;;;18.40;99.90;;;;;;5028993;28;20374;-85
2022/03/27 12:06:34;;;;;;;12.07;5.55;;;18.40;99.90;;;;;;5029156;28;20366;-82
2022/03/27 12:09:01;;;;;;;16.10;6.05;;;18.30;99.90;;;;;;5029051;28;20417;-82
2022/03/27 12:11:28;;;;;;;13.65;5.75;;;18.30;99.90;;;;;;5029363;28;20377;-86
2022/03/27 12:13:58;;;;;;;14.35;6.38;;;18.30;99.90;;;;;;5028864;28;20402;-83
2022/03/27 12:16:27;;;;;;;12.60;6.13;;;18.20;99.90;;;;;;5029252;28;20378;-86
2022/03/27 12:18:54;;;;;;;15.55;6.18;;;18.30;99.90;;;;;;5028829;28;20384;-85
2022/03/27 12:21:22;;;;;;;15.32;6.35;;;18.20;99.90;;;;;;5028749;28;20801;-82
2022/03/27 12:23:56;;;;;;;14.10;6.78;;;18.30;99.90;;;;;;5028650;28;20401;-84
2022/03/27 12:31:57;;;;;;;13.15;5.28;;;18.30;99.90;;;;;;5028748;28;20369;-84
2022/03/27 12:34:24;;;;;;;15.77;5.70;;;18.30;99.90;;;;;;5028612;28;20503;-84
2022/03/27 12:37:10;;;;;;;12.03;5.77;;;18.30;99.90;;;;;;5028666;28;20375;-82
2022/03/27 12:39:49;;;;;;;10.73;5.47;;;18.30;99.90;;;;;;5028497;28;20369;-87
2022/03/27 12:42:42;;;;;;;17.58;6.03;;;18.30;99.90;;;;;;5028318;28;20447;-86
2022/03/27 12:45:32;;;;;;;13.43;5.80;;;18.30;99.90;;;;;;5028470;28;20408;-84
2022/03/27 12:48:03;;;;;;;13.05;6.07;;;18.30;99.90;;;;;;5028251;28;20460;-86
2022/03/27 12:50:37;;;;;;;10.40;5.30;;;18.20;99.90;;;;;;5028647;28;20496;-86
2022/03/27 12:53:13;;;;;;;11.90;5.80;;;18.20;99.90;;;;;;5028564;28;20380;-86
2022/03/27 12:55:51;;;;;;;14.77;5.70;;;18.20;99.90;;;;;;5030985;28;20381;-85
2022/03/27 12:58:20;;;;;;;12.98;5.80;;;18.10;99.90;;;;;;5035072;28;20384;-82
2022/03/27 13:01:09;;;;;;;14.00;5.80;;;18.10;99.90;;;;;;5034984;28;20403;-85
2022/03/27 13:03:42;;;;;;;12.40;5.53;;;18.10;99.90;;;;;;5034760;28;20378;-82
2022/03/27 13:06:10;;;;;;;13.43;5.20;;;18.10;99.90;;;;;;5035016;28;20426;-87
2022/03/27 13:08:39;;;;;;;11.00;5.30;;;18.00;99.90;;;;;;5035143;28;20381;-86
2022/03/27 13:11:09;;;;;;;12.25;5.28;;;18.00;99.90;;;;;;5035139;28;20914;-83